Gascoyne, North Dakota
Current Conditions -  °F | °C
As of 1:53 PM on Thursday 20 Nov 2014 (Local Time) from KHEI Reporting Station
Clear Clear  
Wind Chill: 16°   Ceiling: Unl
Heat Index: 25°   Visibility: 10mi
Dew Point: 19°   Wind: 8mph
Humidity: 78%   Direction: 160°SSE
Pressure: 29.94"   Gusts: NA
Location:  46.1126°N, 103.12°W
Report Text: KHEI 202053Z AUTO 16007KT 10SM CLR M04/M07 A2994 RMK AO2 SLP178 T10391072 56023
Loading
Personal Weather Stations






























Interactive Weather Map New forecast layout! Learn more

10-Day Weather Forecast

Advertisements
Track Severe Weather on mobile